sensor_id;sensor_type;location;lat;lon;timestamp;pressure;altitude;pressure_sealevel;temperature;humidity
24390;BME280;12510;56.468;-3.004;2023-03-14T00:02:11;98013.50;;;12.68;45.50
24390;BME280;12510;56.468;-3.004;2023-03-14T00:04:38;98009.34;;;12.79;43.91
24390;BME280;12510;56.468;-3.004;2023-03-14T00:07:04;98015.78;;;12.57;44.61
24390;BME280;12510;56.468;-3.004;2023-03-14T00:09:31;98020.19;;;12.70;44.65
24390;BME280;12510;56.468;-3.004;2023-03-14T00:11:57;98021.78;;;12.46;44.47
24390;BME280;12510;56.468;-3.004;2023-03-14T00:14:24;98029.00;;;12.57;44.21
24390;BME280;12510;56.468;-3.004;2023-03-14T00:16:50;98033.94;;;12.09;43.42
24390;BME280;12510;56.468;-3.004;2023-03-14T00:19:17;98044.78;;;12.64;44.29
24390;BME280;12510;56.468;-3.004;2023-03-14T00:21:43;98047.44;;;12.64;44.79
24390;BME280;12510;56.468;-3.004;2023-03-14T00:24:10;98043.88;;;13.09;44.69
24390;BME280;12510;56.468;-3.004;2023-03-14T00:26:36;98038.44;;;12.40;43.63
24390;BME280;12510;56.468;-3.004;2023-03-14T00:29:03;98061.25;;;12.66;44.68
24390;BME280;12510;56.468;-3.004;2023-03-14T00:31:29;98072.75;;;12.40;46.03
24390;BME280;12510;56.468;-3.004;2023-03-14T00:33:56;98071.59;;;12.29;45.39
24390;BME280;12510;56.468;-3.004;2023-03-14T00:36:24;98073.34;;;11.97;45.37
24390;BME280;12510;56.468;-3.004;2023-03-14T00:38:52;98066.41;;;12.09;46.68
24390;BME280;12510;56.468;-3.004;2023-03-14T00:41:21;98085.72;;;12.41;46.23
24390;BME280;12510;56.468;-3.004;2023-03-14T00:43:51;98091.00;;;12.41;46.18
24390;BME280;12510;56.468;-3.004;2023-03-14T00:46:17;98095.28;;;11.64;46.52
24390;BME280;12510;56.468;-3.004;2023-03-14T00:48:45;98106.19;;;11.87;47.21
24390;BME280;12510;56.468;-3.004;2023-03-14T00:51:12;98109.25;;;11.84;46.72
24390;BME280;12510;56.468;-3.004;2023-03-14T00:53:43;98113.13;;;11.95;46.13
24390;BME280;12510;56.468;-3.004;2023-03-14T00:56:12;98106.88;;;11.69;45.82
24390;BME280;12510;56.468;-3.004;2023-03-14T00:58:39;98118.38;;;11.88;46.93
24390;BME280;12510;56.468;-3.004;2023-03-14T01:01:12;98119.16;;;12.09;46.59
24390;BME280;12510;56.468;-3.004;2023-03-14T01:03:39;98130.88;;;12.20;46.19
24390;BME280;12510;56.468;-3.004;2023-03-14T01:06:14;98127.47;;;12.13;45.71
24390;BME280;12510;56.468;-3.004;2023-03-14T01:08:43;98137.00;;;12.20;46.58
24390;BME280;12510;56.468;-3.004;2023-03-14T01:11:12;98149.03;;;11.96;47.54
24390;BME280;12510;56.468;-3.004;2023-03-14T01:13:40;98152.91;;;11.60;47.03
24390;BME280;12510;56.468;-3.004;2023-03-14T01:16:08;98161.34;;;11.02;47.35
24390;BME280;12510;56.468;-3.004;2023-03-14T01:18:37;98159.38;;;11.57;47.40
24390;BME280;12510;56.468;-3.004;2023-03-14T01:21:12;98171.72;;;11.70;47.59
24390;BME280;12510;56.468;-3.004;2023-03-14T01:23:41;98168.47;;;11.88;46.92
24390;BME280;12510;56.468;-3.004;2023-03-14T01:26:12;98175.41;;;11.43;46.99
24390;BME280;12510;56.468;-3.004;2023-03-14T01:28:39;98187.75;;;11.35;48.55
24390;BME280;12510;56.468;-3.004;2023-03-14T01:31:08;98186.75;;;11.77;48.04
24390;BME280;12510;56.468;-3.004;2023-03-14T01:33:36;98192.84;;;11.97;47.33
24390;BME280;12510;56.468;-3.004;2023-03-14T01:36:03;98197.88;;;12.05;47.25
24390;BME280;12510;56.468;-3.004;2023-03-14T01:38:31;98201.16;;;11.81;46.70
24390;BME280;12510;56.468;-3.004;2023-03-14T01:40:59;98207.44;;;11.66;46.39
24390;BME280;12510;56.468;-3.004;2023-03-14T01:43:27;98213.53;;;11.60;48.02
24390;BME280;12510;56.468;-3.004;2023-03-14T01:46:12;98212.59;;;10.99;47.40
24390;BME280;12510;56.468;-3.004;2023-03-14T01:54:30;98215.94;;;11.48;47.91
24390;BME280;12510;56.468;-3.004;2023-03-14T01:57:11;98228.91;;;11.36;48.36
24390;BME280;12510;56.468;-3.004;2023-03-14T01:59:40;98233.38;;;11.29;48.23
24390;BME280;12510;56.468;-3.004;2023-03-14T02:02:11;98244.09;;;11.34;48.86
24390;BME280;12510;56.468;-3.004;2023-03-14T02:04:39;98252.63;;;11.36;48.95
24390;BME280;12510;56.468;-3.004;2023-03-14T02:07:22;98257.06;;;11.22;48.67
24390;BME280;12510;56.468;-3.004;2023-03-14T02:10:00;98262.66;;;11.06;49.09
24390;BME280;12510;56.468;-3.004;2023-03-14T02:12:31;98273.53;;;10.83;49.67
24390;BME280;12510;56.468;-3.004;2023-03-14T02:15:28;98272.63;;;10.62;49.67
24390;BME280;12510;56.468;-3.004;2023-03-14T02:17:59;98281.81;;;10.80;49.19
24390;BME280;12510;56.468;-3.004;2023-03-14T02:27:18;98293.34;;;10.79;49.08
24390;BME280;12510;56.468;-3.004;2023-03-14T02:32:36;98296.63;;;10.52;46.83
24390;BME280;12510;56.468;-3.004;2023-03-14T02:35:05;98303.53;;;10.95;48.88
24390;BME280;12510;56.468;-3.004;2023-03-14T02:38:00;98318.75;;;10.93;49.37
24390;BME280;12510;56.468;-3.004;2023-03-14T02:40:24;98317.88;;;10.86;49.17
24390;BME280;12510;56.468;-3.004;2023-03-14T02:42:52;98324.44;;;10.62;49.57
24390;BME280;12510;56.468;-3.004;2023-03-14T02:47:57;98322.50;;;10.49;50.04
24390;BME280;12510;56.468;-3.004;2023-03-14T02:50:29;98338.22;;;10.64;49.80
24390;BME280;12510;56.468;-3.004;2023-03-14T02:52:57;98344.63;;;10.54;49.69
24390;BME280;12510;56.468;-3.004;2023-03-14T02:55:24;98347.75;;;10.36;49.68
24390;BME280;12510;56.468;-3.004;2023-03-14T02:57:54;98355.47;;;10.45;49.64
24390;BME280;12510;56.468;-3.004;2023-03-14T03:00:21;98347.47;;;10.53;49.33
24390;BME280;12510;56.468;-3.004;2023-03-14T03:02:47;98358.44;;;10.63;49.03
24390;BME280;12510;56.468;-3.004;2023-03-14T03:05:14;98360.09;;;10.64;49.57
24390;BME280;12510;56.468;-3.004;2023-03-14T03:07:41;98357.06;;;10.67;49.73
24390;BME280;12510;56.468;-3.004;2023-03-14T03:10:08;98369.56;;;10.59;49.26
24390;BME280;12510;56.468;-3.004;2023-03-14T03:12:35;98375.28;;;10.62;49.74
24390;BME280;12510;56.468;-3.004;2023-03-14T03:15:01;98378.25;;;10.59;49.82
24390;BME280;12510;56.468;-3.004;2023-03-14T03:17:28;98378.47;;;10.57;49.52
24390;BME280;12510;56.468;-3.004;2023-03-14T03:19:55;98387.09;;;10.51;49.90
24390;BME280;12510;56.468;-3.004;2023-03-14T03:22:21;98382.25;;;10.48;49.01
24390;BME280;12510;56.468;-3.004;2023-03-14T03:24:48;98375.03;;;10.57;48.54
24390;BME280;12510;56.468;-3.004;2023-03-14T03:27:15;98381.72;;;10.60;48.46
24390;BME280;12510;56.468;-3.004;2023-03-14T03:29:41;98384.91;;;10.55;49.31
24390;BME280;12510;56.468;-3.004;2023-03-14T03:32:08;98374.69;;;10.38;48.57
24390;BME280;12510;56.468;-3.004;2023-03-14T03:34:34;98382.13;;;10.35;49.59
24390;BME280;12510;56.468;-3.004;2023-03-14T03:37:01;98378.63;;;10.28;49.16
24390;BME280;12510;56.468;-3.004;2023-03-14T03:39:29;98392.75;;;10.27;49.60
24390;BME280;12510;56.468;-3.004;2023-03-14T03:41:56;98391.47;;;10.16;49.62
24390;BME280;12510;56.468;-3.004;2023-03-14T03:44:23;98398.84;;;10.05;49.36
24390;BME280;12510;56.468;-3.004;2023-03-14T03:46:51;98399.03;;;10.26;49.71
24390;BME280;12510;56.468;-3.004;2023-03-14T03:49:18;98392.44;;;10.15;49.17
24390;BME280;12510;56.468;-3.004;2023-03-14T03:51:44;98399.59;;;9.99;49.91
24390;BME280;12510;56.468;-3.004;2023-03-14T03:54:11;98400.66;;;10.05;49.77
24390;BME280;12510;56.468;-3.004;2023-03-14T03:56:38;98402.03;;;10.01;50.25
24390;BME280;12510;56.468;-3.004;2023-03-14T03:59:06;98403.53;;;10.32;49.37
24390;BME280;12510;56.468;-3.004;2023-03-14T04:01:32;98418.16;;;10.13;49.66
24390;BME280;12510;56.468;-3.004;2023-03-14T04:03:59;98414.75;;;9.97;49.78
24390;BME280;12510;56.468;-3.004;2023-03-14T04:06:27;98426.13;;;10.04;49.55
24390;BME280;12510;56.468;-3.004;2023-03-14T04:08:57;98436.41;;;9.99;49.68
24390;BME280;12510;56.468;-3.004;2023-03-14T04:11:44;98435.03;;;10.03;49.52
24390;BME280;12510;56.468;-3.004;2023-03-14T04:14:22;98443.75;;;9.67;50.51
24390;BME280;12510;56.468;-3.004;2023-03-14T04:16:58;98449.19;;;10.02;49.84
24390;BME280;12510;56.468;-3.004;2023-03-14T04:19:24;98448.13;;;9.97;50.04
24390;BME280;12510;56.468;-3.004;2023-03-14T04:21:53;98447.75;;;10.00;49.92
24390;BME280;12510;56.468;-3.004;2023-03-14T04:24:21;98445.00;;;10.08;49.30
24390;BME280;12510;56.468;-3.004;2023-03-14T04:26:49;98438.53;;;10.11;49.88
24390;BME280;12510;56.468;-3.004;2023-03-14T04:29:15;98443.72;;;9.82;50.35
24390;BME280;12510;56.468;-3.004;2023-03-14T04:31:44;98450.97;;;10.02;49.93
24390;BME280;12510;56.468;-3.004;2023-03-14T04:34:10;98441.97;;;10.11;49.49
24390;BME280;12510;56.468;-3.004;2023-03-14T04:36:43;98453.19;;;9.98;49.43
24390;BME280;12510;56.468;-3.004;2023-03-14T04:39:15;98461.28;;;9.82;49.87
24390;BME280;12510;56.468;-3.004;2023-03-14T04:41:49;98461.28;;;9.82;49.34
24390;BME280;12510;56.468;-3.004;2023-03-14T04:44:16;98471.28;;;9.71;50.02
24390;BME280;12510;56.468;-3.004;2023-03-14T04:46:43;98473.31;;;9.91;50.24
24390;BME280;12510;56.468;-3.004;2023-03-14T04:49:11;98476.25;;;9.81;49.68
24390;BME280;12510;56.468;-3.004;2023-03-14T04:51:38;98473.44;;;9.83;49.52
24390;BME280;12510;56.468;-3.004;2023-03-14T04:54:04;98478.41;;;9.78;49.22
24390;BME280;12510;56.468;-3.004;2023-03-14T04:56:31;98478.72;;;9.68;49.79
24390;BME280;12510;56.468;-3.004;2023-03-14T04:58:58;98480.81;;;9.43;50.81
24390;BME280;12510;56.468;-3.004;2023-03-14T05:01:25;98470.09;;;9.74;50.33
24390;BME280;12510;56.468;-3.004;2023-03-14T05:04:10;98472.88;;;9.87;50.15
24390;BME280;12510;56.468;-3.004;2023-03-14T05:07:09;98469.09;;;9.90;49.74
24390;BME280;12510;56.468;-3.004;2023-03-14T05:09:48;98487.13;;;10.15;50.01
24390;BME280;12510;56.468;-3.004;2023-03-14T05:12:33;98481.59;;;9.88;49.54
24390;BME280;12510;56.468;-3.004;2023-03-14T05:15:17;98492.25;;;10.01;49.19
24390;BME280;12510;56.468;-3.004;2023-03-14T05:18:10;98500.47;;;10.13;49.98
24390;BME280;12510;56.468;-3.004;2023-03-14T05:20:54;98497.78;;;10.28;49.68
24390;BME280;12510;56.468;-3.004;2023-03-14T05:23:41;98499.84;;;10.69;49.00
24390;BME280;12510;56.468;-3.004;2023-03-14T05:26:14;98506.38;;;10.52;48.88
24390;BME280;12510;56.468;-3.004;2023-03-14T05:28:56;98506.63;;;10.57;49.11
24390;BME280;12510;56.468;-3.004;2023-03-14T05:31:44;98512.19;;;10.69;48.87
24390;BME280;12510;56.468;-3.004;2023-03-14T05:34:30;98512.38;;;10.46;49.07
24390;BME280;12510;56.468;-3.004;2023-03-14T05:37:23;98516.13;;;10.36;49.63
24390;BME280;12510;56.468;-3.004;2023-03-14T05:40:40;98520.25;;;10.46;49.68
24390;BME280;12510;56.468;-3.004;2023-03-14T05:43:13;98524.34;;;10.12;50.32
24390;BME280;12510;56.468;-3.004;2023-03-14T05:45:55;98516.56;;;10.40;50.22
24390;BME280;12510;56.468;-3.004;2023-03-14T05:48:51;98514.03;;;10.97;48.93
24390;BME280;12510;56.468;-3.004;2023-03-14T05:51:35;98515.81;;;10.68;48.77
24390;BME280;12510;56.468;-3.004;2023-03-14T05:54:23;98514.94;;;10.82;49.13
24390;BME280;12510;56.468;-3.004;2023-03-14T05:56:52;98517.47;;;10.32;49.65
24390;BME280;12510;56.468;-3.004;2023-03-14T05:59:27;98518.69;;;10.51;49.75
24390;BME280;12510;56.468;-3.004;2023-03-14T06:02:17;98537.00;;;10.23;50.50
24390;BME280;12510;56.468;-3.004;2023-03-14T06:04:53;98552.38;;;9.89;50.42
24390;BME280;12510;56.468;-3.004;2023-03-14T06:07:20;98553.28;;;10.48;50.18
24390;BME280;12510;56.468;-3.004;2023-03-14T06:09:47;98564.22;;;10.30;50.12
24390;BME280;12510;56.468;-3.004;2023-03-14T06:12:16;98556.44;;;10.59;49.78
24390;BME280;12510;56.468;-3.004;2023-03-14T06:14:45;98568.00;;;10.43;49.89
24390;BME280;12510;56.468;-3.004;2023-03-14T06:17:12;98566.38;;;10.42;50.04
24390;BME280;12510;56.468;-3.004;2023-03-14T06:19:58;98564.06;;;10.17;50.25
24390;BME280;12510;56.468;-3.004;2023-03-14T06:22:25;98560.72;;;10.45;49.91
24390;BME280;12510;56.468;-3.004;2023-03-14T06:24:53;98566.75;;;10.38;49.92
24390;BME280;12510;56.468;-3.004;2023-03-14T06:27:21;98576.19;;;10.69;49.57
24390;BME280;12510;56.468;-3.004;2023-03-14T06:29:51;98566.09;;;10.73;49.14
24390;BME280;12510;56.468;-3.004;2023-03-14T06:32:18;98573.53;;;10.69;49.20
24390;BME280;12510;56.468;-3.004;2023-03-14T06:34:46;98583.22;;;9.81;50.65
24390;BME280;12510;56.468;-3.004;2023-03-14T06:37:12;98590.63;;;9.92;51.33
24390;BME280;12510;56.468;-3.004;2023-03-14T06:39:39;98596.78;;;10.29;50.77
24390;BME280;12510;56.468;-3.004;2023-03-14T06:42:13;98597.88;;;10.20;51.04
24390;BME280;12510;56.468;-3.004;2023-03-14T06:44:41;98599.84;;;10.48;50.52
24390;BME280;12510;56.468;-3.004;2023-03-14T06:47:08;98595.34;;;10.12;50.71
24390;BME280;12510;56.468;-3.004;2023-03-14T06:49:38;98594.94;;;10.30;51.19
24390;BME280;12510;56.468;-3.004;2023-03-14T06:52:04;98602.59;;;9.80;51.19
24390;BME280;12510;56.468;-3.004;2023-03-14T06:54:31;98609.31;;;10.12;51.73
24390;BME280;12510;56.468;-3.004;2023-03-14T06:56:57;98609.69;;;9.94;50.93
24390;BME280;12510;56.468;-3.004;2023-03-14T06:59:24;98611.22;;;10.18;50.87
24390;BME280;12510;56.468;-3.004;2023-03-14T07:01:51;98624.63;;;10.38;50.75
24390;BME280;12510;56.468;-3.004;2023-03-14T07:04:17;98628.66;;;10.93;50.36
24390;BME280;12510;56.468;-3.004;2023-03-14T07:06:47;98630.31;;;10.27;50.28
24390;BME280;12510;56.468;-3.004;2023-03-14T07:09:14;98643.66;;;10.26;50.87
24390;BME280;12510;56.468;-3.004;2023-03-14T07:11:48;98639.78;;;10.36;52.34
24390;BME280;12510;56.468;-3.004;2023-03-14T07:14:16;98639.47;;;8.95;53.76
24390;BME280;12510;56.468;-3.004;2023-03-14T07:16:43;98656.69;;;7.54;57.68
24390;BME280;12510;56.468;-3.004;2023-03-14T07:19:09;98653.22;;;10.12;53.79
24390;BME280;12510;56.468;-3.004;2023-03-14T07:21:36;98649.09;;;10.90;49.79
24390;BME280;12510;56.468;-3.004;2023-03-14T07:24:07;98655.56;;;10.88;50.15
24390;BME280;12510;56.468;-3.004;2023-03-14T07:26:34;98664.22;;;9.01;53.21
24390;BME280;12510;56.468;-3.004;2023-03-14T07:29:01;98672.66;;;9.34;55.72
24390;BME280;12510;56.468;-3.004;2023-03-14T07:31:29;98671.44;;;9.22;54.17
24390;BME280;12510;56.468;-3.004;2023-03-14T07:33:56;98674.50;;;9.34;54.18
24390;BME280;12510;56.468;-3.004;2023-03-14T07:36:26;98672.97;;;10.07;52.37
24390;BME280;12510;56.468;-3.004;2023-03-14T07:38:53;98689.03;;;10.13;52.90
24390;BME280;12510;56.468;-3.004;2023-03-14T07:41:55;98696.84;;;11.74;54.30
24390;BME280;12510;56.468;-3.004;2023-03-14T07:44:42;98672.88;;;12.81;47.37
24390;BME280;12510;56.468;-3.004;2023-03-14T07:47:09;98673.16;;;14.06;46.57
24390;BME280;12510;56.468;-3.004;2023-03-14T07:49:35;98664.47;;;13.46;44.54
24390;BME280;12510;56.468;-3.004;2023-03-14T07:52:02;98675.59;;;14.15;46.44
24390;BME280;12510;56.468;-3.004;2023-03-14T07:54:28;98678.28;;;14.01;45.95
24390;BME280;12510;56.468;-3.004;2023-03-14T07:56:55;98688.88;;;14.60;45.42
24390;BME280;12510;56.468;-3.004;2023-03-14T07:59:21;98680.25;;;14.19;44.89
24390;BME280;12510;56.468;-3.004;2023-03-14T08:01:48;98672.25;;;14.39;42.42
24390;BME280;12510;56.468;-3.004;2023-03-14T08:04:14;98687.91;;;14.48;43.56
24390;BME280;12510;56.468;-3.004;2023-03-14T08:06:41;98708.13;;;14.29;45.61
24390;BME280;12510;56.468;-3.004;2023-03-14T08:09:07;98690.94;;;14.65;41.19
24390;BME280;12510;56.468;-3.004;2023-03-14T08:11:34;98700.06;;;13.77;41.79
24390;BME280;12510;56.468;-3.004;2023-03-14T08:14:00;98707.34;;;13.34;43.30
24390;BME280;12510;56.468;-3.004;2023-03-14T08:16:26;98722.69;;;14.71;42.98
24390;BME280;12510;56.468;-3.004;2023-03-14T08:18:53;98730.94;;;14.95;43.30
24390;BME280;12510;56.468;-3.004;2023-03-14T08:21:19;98717.97;;;14.01;42.04
24390;BME280;12510;56.468;-3.004;2023-03-14T08:23:46;98732.00;;;13.88;43.56
24390;BME280;12510;56.468;-3.004;2023-03-14T08:26:12;98742.81;;;13.80;43.50
24390;BME280;12510;56.468;-3.004;2023-03-14T08:28:39;98735.56;;;15.06;41.63
24390;BME280;12510;56.468;-3.004;2023-03-14T08:31:05;98737.38;;;14.61;41.59
24390;BME280;12510;56.468;-3.004;2023-03-14T08:33:32;98751.53;;;14.93;42.62
24390;BME280;12510;56.468;-3.004;2023-03-14T08:36:00;98735.88;;;14.85;41.69
24390;BME280;12510;56.468;-3.004;2023-03-14T08:38:27;98746.25;;;15.64;42.22
24390;BME280;12510;56.468;-3.004;2023-03-14T08:40:58;98750.81;;;15.82;40.43
24390;BME280;12510;56.468;-3.004;2023-03-14T08:43:28;98767.69;;;16.75;41.22
24390;BME280;12510;56.468;-3.004;2023-03-14T08:45:59;98757.88;;;14.06;41.44
24390;BME280;12510;56.468;-3.004;2023-03-14T08:48:26;98766.66;;;13.05;46.08
24390;BME280;12510;56.468;-3.004;2023-03-14T08:50:52;98779.84;;;13.05;47.24
24390;BME280;12510;56.468;-3.004;2023-03-14T08:53:19;98772.09;;;13.72;45.50
24390;BME280;12510;56.468;-3.004;2023-03-14T08:55:47;98768.56;;;14.52;44.72
24390;BME280;12510;56.468;-3.004;2023-03-14T08:58:13;98773.72;;;14.20;44.45
24390;BME280;12510;56.468;-3.004;2023-03-14T09:00:39;98764.09;;;14.52;43.55
24390;BME280;12510;56.468;-3.004;2023-03-14T09:03:06;98765.34;;;14.30;43.71
24390;BME280;12510;56.468;-3.004;2023-03-14T09:05:33;98763.97;;;15.95;42.00
24390;BME280;12510;56.468;-3.004;2023-03-14T09:08:00;98764.06;;;15.18;41.26
24390;BME280;12510;56.468;-3.004;2023-03-14T09:10:27;98761.91;;;16.78;38.95
24390;BME280;12510;56.468;-3.004;2023-03-14T09:12:54;98760.00;;;17.76;36.73
24390;BME280;12510;56.468;-3.004;2023-03-14T09:15:20;98759.41;;;17.74;36.24
24390;BME280;12510;56.468;-3.004;2023-03-14T09:17:46;98771.66;;;15.78;37.64
24390;BME280;12510;56.468;-3.004;2023-03-14T09:20:13;98780.28;;;16.24;37.70
24390;BME280;12510;56.468;-3.004;2023-03-14T09:22:40;98788.72;;;16.58;36.48
24390;BME280;12510;56.468;-3.004;2023-03-14T09:25:07;98793.13;;;16.02;37.98
24390;BME280;12510;56.468;-3.004;2023-03-14T09:27:33;98790.19;;;15.53;37.98
24390;BME280;12510;56.468;-3.004;2023-03-14T09:30:00;98800.41;;;15.49;39.21
24390;BME280;12510;56.468;-3.004;2023-03-14T09:32:26;98797.50;;;15.19;39.58
24390;BME280;12510;56.468;-3.004;2023-03-14T09:34:53;98807.69;;;15.61;39.25
24390;BME280;12510;56.468;-3.004;2023-03-14T09:37:19;98811.00;;;15.11;39.13
24390;BME280;12510;56.468;-3.004;2023-03-14T09:39:47;98814.09;;;15.07;39.10
24390;BME280;12510;56.468;-3.004;2023-03-14T09:42:16;98808.75;;;16.35;37.04
24390;BME280;12510;56.468;-3.004;2023-03-14T09:45:04;98815.03;;;15.20;36.32
24390;BME280;12510;56.468;-3.004;2023-03-14T09:47:34;98812.38;;;15.20;36.38
24390;BME280;12510;56.468;-3.004;2023-03-14T09:50:01;98814.09;;;15.46;35.82
24390;BME280;12510;56.468;-3.004;2023-03-14T09:52:32;98823.22;;;15.57;35.54
24390;BME280;12510;56.468;-3.004;2023-03-14T09:55:03;98834.00;;;14.18;37.27
24390;BME280;12510;56.468;-3.004;2023-03-14T09:57:32;98849.22;;;12.79;38.94
24390;BME280;12510;56.468;-3.004;2023-03-14T10:00:25;98863.06;;;12.52;40.39
24390;BME280;12510;56.468;-3.004;2023-03-14T10:05:40;98856.78;;;13.92;38.75
24390;BME280;12510;56.468;-3.004;2023-03-14T10:08:11;98853.75;;;15.28;36.75
24390;BME280;12510;56.468;-3.004;2023-03-14T10:10:39;98868.56;;;14.97;39.49
24390;BME280;12510;56.468;-3.004;2023-03-14T10:13:24;98870.19;;;13.70;38.08
24390;BME280;12510;56.468;-3.004;2023-03-14T10:16:04;98870.25;;;14.24;38.76
24390;BME280;12510;56.468;-3.004;2023-03-14T10:18:33;98869.91;;;16.03;36.75
24390;BME280;12510;56.468;-3.004;2023-03-14T10:21:21;98886.94;;;14.58;38.24
24390;BME280;12510;56.468;-3.004;2023-03-14T10:23:52;98880.44;;;14.54;37.84
24390;BME280;12510;56.468;-3.004;2023-03-14T10:26:24;98886.09;;;14.98;37.36
24390;BME280;12510;56.468;-3.004;2023-03-14T10:29:00;98882.78;;;15.16;36.70
24390;BME280;12510;56.468;-3.004;2023-03-14T10:31:27;98887.81;;;15.76;36.19
24390;BME280;12510;56.468;-3.004;2023-03-14T10:34:02;98894.19;;;15.09;35.57
24390;BME280;12510;56.468;-3.004;2023-03-14T10:36:30;98873.31;;;15.33;33.73
24390;BME280;12510;56.468;-3.004;2023-03-14T10:39:36;98872.16;;;16.57;32.34
24390;BME280;12510;56.468;-3.004;2023-03-14T10:44:39;98913.19;;;16.61;33.36
24390;BME280;12510;56.468;-3.004;2023-03-14T10:47:16;98898.56;;;17.82;30.77
24390;BME280;12510;56.468;-3.004;2023-03-14T10:49:43;98899.69;;;18.82;31.44
24390;BME280;12510;56.468;-3.004;2023-03-14T10:54:39;98908.56;;;18.29;30.50
24390;BME280;12510;56.468;-3.004;2023-03-14T10:57:06;98930.00;;;18.34;32.24
24390;BME280;12510;56.468;-3.004;2023-03-14T10:59:39;98932.13;;;17.15;32.52
24390;BME280;12510;56.468;-3.004;2023-03-14T11:02:15;98921.31;;;16.41;31.39
24390;BME280;12510;56.468;-3.004;2023-03-14T11:05:03;98940.56;;;16.36;32.32
24390;BME280;12510;56.468;-3.004;2023-03-14T11:07:39;98956.19;;;16.76;31.80
24390;BME280;12510;56.468;-3.004;2023-03-14T11:10:40;98951.09;;;16.50;31.90
24390;BME280;12510;56.468;-3.004;2023-03-14T11:13:23;98950.44;;;17.05;31.18
24390;BME280;12510;56.468;-3.004;2023-03-14T11:19:09;98963.38;;;17.38;31.47
24390;BME280;12510;56.468;-3.004;2023-03-14T11:21:52;98990.84;;;16.88;32.91
24390;BME280;12510;56.468;-3.004;2023-03-14T11:25:15;98966.34;;;17.30;31.81
24390;BME280;12510;56.468;-3.004;2023-03-14T11:27:40;98981.13;;;16.75;31.19
24390;BME280;12510;56.468;-3.004;2023-03-14T11:30:34;98995.31;;;17.38;31.68
24390;BME280;12510;56.468;-3.004;2023-03-14T11:33:13;98991.94;;;15.85;32.19
24390;BME280;12510;56.468;-3.004;2023-03-14T11:36:07;99006.59;;;14.82;34.12
24390;BME280;12510;56.468;-3.004;2023-03-14T11:38:43;98992.78;;;16.49;32.87
24390;BME280;12510;56.468;-3.004;2023-03-14T11:41:16;98998.81;;;15.34;33.62
24390;BME280;12510;56.468;-3.004;2023-03-14T11:43:48;99006.44;;;15.82;34.18
24390;BME280;12510;56.468;-3.004;2023-03-14T11:46:34;99025.03;;;16.53;34.04
24390;BME280;12510;56.468;-3.004;2023-03-14T11:52:01;99026.19;;;16.38;32.72
24390;BME280;12510;56.468;-3.004;2023-03-14T11:54:41;99036.97;;;14.72;34.56
24390;BME280;12510;56.468;-3.004;2023-03-14T11:57:15;99056.94;;;15.35;34.68
24390;BME280;12510;56.468;-3.004;2023-03-14T12:00:13;99053.69;;;14.86;34.11
24390;BME280;12510;56.468;-3.004;2023-03-14T12:08:19;99096.84;;;16.39;35.65
24390;BME280;12510;56.468;-3.004;2023-03-14T12:10:52;99105.47;;;15.42;36.35
24390;BME280;12510;56.468;-3.004;2023-03-14T12:13:21;99106.34;;;16.99;35.40
24390;BME280;12510;56.468;-3.004;2023-03-14T12:15:53;99115.91;;;16.30;34.24
24390;BME280;12510;56.468;-3.004;2023-03-14T12:18:27;99136.69;;;16.46;38.18
24390;BME280;12510;56.468;-3.004;2023-03-14T12:20:57;99133.03;;;16.40;36.40
24390;BME280;12510;56.468;-3.004;2023-03-14T12:23:24;99135.19;;;16.18;36.03
24390;BME280;12510;56.468;-3.004;2023-03-14T12:28:42;99151.13;;;14.78;37.69
24390;BME280;12510;56.468;-3.004;2023-03-14T12:34:29;99164.66;;;15.90;38.46
24390;BME280;12510;56.468;-3.004;2023-03-14T12:37:34;99160.28;;;16.22;37.33
24390;BME280;12510;56.468;-3.004;2023-03-14T12:47:47;99178.13;;;15.62;37.78
24390;BME280;12510;56.468;-3.004;2023-03-14T12:50:21;99195.44;;;16.11;40.33
24390;BME280;12510;56.468;-3.004;2023-03-14T12:56:21;99229.09;;;17.35;45.02
24390;BME280;12510;56.468;-3.004;2023-03-14T13:04:31;99195.78;;;14.87;37.81
24390;BME280;12510;56.468;-3.004;2023-03-14T13:07:00;99210.38;;;15.92;38.89
24390;BME280;12510;56.468;-3.004;2023-03-14T13:12:09;99226.25;;;15.32;40.75
24390;BME280;12510;56.468;-3.004;2023-03-14T13:14:40;99245.47;;;16.34;43.98
24390;BME280;12510;56.468;-3.004;2023-03-14T13:17:14;99219.09;;;16.85;38.85
24390;BME280;12510;56.468;-3.004;2023-03-14T13:19:43;99203.81;;;15.34;36.27
24390;BME280;12510;56.468;-3.004;2023-03-14T13:22:17;99213.84;;;15.86;37.59
24390;BME280;12510;56.468;-3.004;2023-03-14T13:24:46;99232.16;;;16.48;39.04
24390;BME280;12510;56.468;-3.004;2023-03-14T13:27:20;99229.53;;;16.28;39.55
24390;BME280;12510;56.468;-3.004;2023-03-14T13:29:50;99256.75;;;16.82;42.84
24390;BME280;12510;56.468;-3.004;2023-03-14T13:32:20;99263.84;;;16.42;42.95
24390;BME280;12510;56.468;-3.004;2023-03-14T13:34:47;99264.91;;;16.01;42.11
24390;BME280;12510;56.468;-3.004;2023-03-14T13:37:25;99286.81;;;16.75;47.50
24390;BME280;12510;56.468;-3.004;2023-03-14T13:39:54;99287.75;;;17.15;46.35
24390;BME280;12510;56.468;-3.004;2023-03-14T13:42:29;99233.63;;;15.76;37.69
24390;BME280;12510;56.468;-3.004;2023-03-14T13:44:56;99268.53;;;16.40;39.80
24390;BME280;12510;56.468;-3.004;2023-03-14T13:47:25;99270.00;;;15.96;40.74
24390;BME280;12510;56.468;-3.004;2023-03-14T13:49:52;99271.53;;;15.17;40.39
24390;BME280;12510;56.468;-3.004;2023-03-14T13:52:36;99272.25;;;15.92;39.47
24390;BME280;12510;56.468;-3.004;2023-03-14T13:55:05;99283.91;;;16.18;41.33
24390;BME280;12510;56.468;-3.004;2023-03-14T13:57:49;99277.78;;;15.91;38.05
24390;BME280;12510;56.468;-3.004;2023-03-14T14:00:25;99326.78;;;16.35;46.36
24390;BME280;12510;56.468;-3.004;2023-03-14T14:02:54;99283.31;;;15.07;36.96
24390;BME280;12510;56.468;-3.004;2023-03-14T14:05:22;99304.66;;;15.48;38.78
24390;BME280;12510;56.468;-3.004;2023-03-14T14:07:50;99329.66;;;15.94;42.63
24390;BME280;12510;56.468;-3.004;2023-03-14T14:10:18;99305.09;;;13.54;38.57
24390;BME280;12510;56.468;-3.004;2023-03-14T14:12:49;99339.78;;;15.01;42.63
24390;BME280;12510;56.468;-3.004;2023-03-14T14:15:27;99315.91;;;15.70;39.46
24390;BME280;12510;56.468;-3.004;2023-03-14T14:17:57;99347.44;;;16.06;42.92